Time;durP1;ratioP1;P1;durP2;ratioP2;P2;SDS_P1;SDS_P2;PMS_P1;PMS_P2;Temp;Humidity;BMP_temperature;BMP_pressure;BME280_temperature;BME280_humidity;BME280_pressure;Samples;Min_cycle;Max_cycle;Signal;HPM_P1;HPM_P2
2024/03/12 00:01:25;;;;;;;2.33;1.70;;;;;;;-145.69;74.51;52337.44;5154016;27;20227;-80
2024/03/12 00:03:56;;;;;;;2.73;1.70;;;;;;;-145.69;74.04;52345.38;5133541;27;20659;-80
2024/03/12 00:06:25;;;;;;;5.27;2.03;;;;;;;-145.69;74.43;52377.06;5133447;28;20192;-80
2024/03/12 00:08:54;;;;;;;2.20;1.67;;;;;;;-145.69;73.44;52319.63;5133033;28;20608;-80
2024/03/12 00:11:20;;;;;;;3.73;1.70;;;;;;;-145.69;73.42;52319.63;5133672;28;20201;-80
2024/03/12 00:13:51;;;;;;;2.60;1.93;;;;;;;-145.69;74.02;52345.38;5133436;28;20208;-80
2024/03/12 00:16:18;;;;;;;3.63;2.13;;;;;;;-145.69;73.76;52369.13;5132900;27;20204;-80
2024/03/12 00:18:44;;;;;;;3.17;1.87;;;;;;;-145.69;73.30;52341.41;5133554;27;20208;-79
2024/03/12 00:21:12;;;;;;;4.17;2.20;;;;;;;-145.69;73.05;52343.38;5133402;27;20229;-80
2024/03/12 00:23:41;;;;;;;2.90;1.80;;;;;;;-145.69;73.35;52377.06;5133360;27;20295;-80
2024/03/12 00:26:10;;;;;;;4.50;1.67;;;;;;;-145.69;72.98;52333.47;5133103;27;20257;-80
2024/03/12 00:28:37;;;;;;;2.70;1.57;;;;;;;-145.69;72.66;52345.38;5137222;27;20200;-80
2024/03/12 00:31:05;;;;;;;2.57;1.60;;;;;;;-145.69;72.23;52345.38;5133489;27;20196;-81
2024/03/12 00:33:32;;;;;;;2.50;1.50;;;;;;;-145.69;72.69;52349.31;5131597;27;20193;-80
2024/03/12 00:35:59;;;;;;;3.13;1.77;;;;;;;-145.69;72.87;52337.44;5133260;27;20211;-80
2024/03/12 00:38:28;;;;;;;4.17;1.60;;;;;;;-145.69;73.77;52363.19;5133111;27;20242;-79
2024/03/12 00:40:55;;;;;;;2.80;1.60;;;;;;;-145.69;72.90;52379.03;5136814;27;20594;-79
2024/03/12 00:43:21;;;;;;;3.27;1.67;;;;;;;-145.69;72.26;52392.91;5133086;27;20296;-80
2024/03/12 00:45:48;;;;;;;2.77;1.77;;;;;;;-145.69;72.35;52357.25;5132751;28;20232;-80
2024/03/12 00:48:18;;;;;;;2.23;1.50;;;;;;;-145.69;73.18;52341.41;5133026;28;20292;-79
2024/03/12 00:50:45;;;;;;;3.10;1.90;;;;;;;-145.69;71.80;52383.00;5135271;27;20661;-79
2024/03/12 00:53:13;;;;;;;2.63;1.60;;;;;;;-145.69;71.83;52365.16;5136947;27;20197;-79
2024/03/12 00:55:47;;;;;;;5.13;1.90;;;;;;;-145.69;72.73;52357.25;5136631;27;20200;-80
2024/03/12 00:58:13;;;;;;;1.50;1.40;;;;;;;-145.69;72.47;52375.06;5136911;27;20197;-80
2024/03/12 01:00:41;;;;;;;1.83;1.50;;;;;;;-145.69;74.73;52333.47;5136800;27;20197;-80
2024/03/12 01:03:11;;;;;;;2.50;1.70;;;;;;;-145.69;72.61;52359.22;5136069;27;20266;-79
2024/03/12 01:05:42;;;;;;;2.23;1.83;;;;;;;-145.69;73.55;52369.13;5136063;27;20242;-80
2024/03/12 01:08:11;;;;;;;3.53;1.80;;;;;;;-145.69;72.91;52331.50;5136196;27;20197;-80
2024/03/12 01:10:39;;;;;;;3.53;1.90;;;;;;;-145.69;73.32;52353.28;5136954;27;20622;-80
2024/03/12 01:13:08;;;;;;;1.83;1.63;;;;;;;-145.69;73.00;52331.50;5136447;27;20536;-80
2024/03/12 01:15:35;;;;;;;3.23;1.93;;;;;;;-145.69;73.60;52367.16;5136373;27;20197;-80
2024/03/12 01:18:05;;;;;;;3.22;2.08;;;;;;;-145.69;74.46;52353.28;5135945;27;20434;-80
2024/03/12 01:20:34;;;;;;;3.07;1.87;;;;;;;-145.69;72.88;52363.19;5136167;27;20245;-79
2024/03/12 01:23:02;;;;;;;5.90;2.17;;;;;;;-145.69;73.55;52384.97;5136264;27;20240;-80
2024/03/12 01:25:30;;;;;;;3.80;1.87;;;;;;;-145.69;72.83;52361.22;5136513;27;20254;-80
2024/03/12 01:27:57;;;;;;;3.00;1.70;;;;;;;-145.69;74.00;52377.06;5136118;27;20200;-81
2024/03/12 01:30:27;;;;;;;5.30;2.10;;;;;;;-145.69;73.03;52339.44;5115690;28;20197;-80
2024/03/12 01:32:57;;;;;;;4.27;2.00;;;;;;;-145.69;73.07;52345.38;5132898;27;20249;-80
2024/03/12 01:35:24;;;;;;;3.50;1.77;;;;;;;-145.69;73.13;52379.03;5136474;27;20224;-81
2024/03/12 01:37:51;;;;;;;5.40;2.17;;;;;;;-145.69;73.11;52347.34;5136064;27;20200;-81
2024/03/12 01:40:21;;;;;;;2.50;2.20;;;;;;;-145.69;73.84;52333.47;5135823;27;20197;-78
2024/03/12 01:42:49;;;;;;;2.97;2.00;;;;;;;-145.69;73.40;52347.34;5135849;27;20231;-80
2024/03/12 01:45:17;;;;;;;2.73;2.13;;;;;;;-145.69;73.22;52349.31;5136098;27;20232;-80
2024/03/12 01:47:45;;;;;;;5.83;2.13;;;;;;;-145.69;73.20;52373.09;5135869;27;20231;-80
2024/03/12 01:50:12;;;;;;;5.47;2.43;;;;;;;-145.69;74.78;52349.31;5133350;27;20239;-81
2024/03/12 01:52:39;;;;;;;5.93;1.93;;;;;;;-145.69;74.21;52363.19;5115380;27;20209;-80
2024/03/12 01:55:07;;;;;;;2.87;1.87;;;;;;;-145.69;72.73;52357.25;5125996;27;20280;-80
2024/03/12 01:57:35;;;;;;;4.23;2.20;;;;;;;-145.69;74.58;52343.38;5135677;27;20208;-80
2024/03/12 02:00:02;;;;;;;2.50;1.70;;;;;;;-145.69;74.69;52353.28;5139014;27;20201;-79
2024/03/12 02:02:36;;;;;;;7.27;2.20;;;;;;;-145.69;73.83;52349.31;5135129;27;20232;-80
2024/03/12 02:05:02;;;;;;;3.10;2.07;;;;;;;-145.69;74.17;52333.47;5135662;27;20192;-80
2024/03/12 02:07:30;;;;;;;6.20;1.97;;;;;;;-145.69;74.01;52394.88;5135428;27;20195;-80
2024/03/12 02:09:57;;;;;;;2.27;1.90;;;;;;;-145.69;74.34;52333.47;5135776;27;20231;-81
2024/03/12 02:12:23;;;;;;;3.67;1.70;;;;;;;-145.69;73.90;52347.34;5135084;27;20214;-80
2024/03/12 02:14:50;;;;;;;4.77;2.20;;;;;;;-145.69;74.57;52363.19;5134957;27;20245;-80
2024/03/12 02:17:17;;;;;;;3.43;2.20;;;;;;;-145.69;74.17;52353.28;5135621;27;20205;-80
2024/03/12 02:19:46;;;;;;;2.27;1.80;;;;;;;-145.69;74.09;52341.41;5135184;27;20193;-80
2024/03/12 02:22:12;;;;;;;2.87;1.80;;;;;;;-145.69;73.82;52345.38;5135025;27;20225;-79
2024/03/12 02:24:40;;;;;;;5.27;2.00;;;;;;;-145.69;74.47;52373.09;5135025;27;20208;-79
2024/03/12 02:27:06;;;;;;;5.27;2.13;;;;;;;-145.69;73.21;52390.91;5135518;27;20200;-80
2024/03/12 02:29:33;;;;;;;2.40;1.97;;;;;;;-145.69;73.30;52383.00;5148238;27;20196;-79
2024/03/12 02:31:59;;;;;;;3.30;1.80;;;;;;;-145.69;73.60;52343.38;5156034;27;20188;-79
2024/03/12 02:34:29;;;;;;;3.63;1.83;;;;;;;-145.69;73.38;52355.28;5134016;27;20201;-80
2024/03/12 02:36:55;;;;;;;4.47;2.13;;;;;;;-145.69;74.15;52384.97;5134864;27;20246;-78
2024/03/12 02:39:22;;;;;;;4.77;2.20;;;;;;;-145.69;74.95;52373.09;5134742;27;20204;-79
2024/03/12 02:41:50;;;;;;;3.97;1.90;;;;;;;-145.69;73.50;52371.13;5134853;27;20548;-79
2024/03/12 02:44:17;;;;;;;3.63;2.00;;;;;;;-145.69;72.08;52367.16;5134895;27;20684;-79
2024/03/12 02:46:49;;;;;;;2.97;2.17;;;;;;;-145.69;73.30;52379.03;5134875;27;20224;-79
2024/03/12 02:49:16;;;;;;;2.83;1.80;;;;;;;-145.69;73.08;52349.31;5134921;27;20242;-79
2024/03/12 02:51:46;;;;;;;2.77;1.63;;;;;;;-145.69;74.06;52365.16;5134307;27;20227;-78
2024/03/12 02:54:13;;;;;;;2.63;1.87;;;;;;;-145.69;73.30;52396.84;5134192;27;20200;-78
2024/03/12 02:56:40;;;;;;;3.13;1.77;;;;;;;-145.69;73.79;52388.94;5133986;27;20197;-79
2024/03/12 02:59:08;;;;;;;3.60;2.03;;;;;;;-145.69;74.18;52367.16;5134533;27;20671;-79
2024/03/12 03:01:35;;;;;;;3.57;1.90;;;;;;;-145.69;73.55;52361.22;5133889;27;20232;-79
2024/03/12 03:04:02;;;;;;;5.77;2.07;;;;;;;-145.69;74.48;52381.00;5134391;27;20196;-79
2024/03/12 03:06:29;;;;;;;3.90;1.90;;;;;;;-145.69;74.62;52365.16;5113795;28;20205;-79
2024/03/12 03:08:58;;;;;;;8.67;2.17;;;;;;;-145.69;74.35;52367.16;5114030;28;20201;-79
2024/03/12 03:11:25;;;;;;;4.17;1.87;;;;;;;-145.69;74.24;52357.25;5113621;28;20198;-78
2024/03/12 03:13:51;;;;;;;4.50;2.10;;;;;;;-145.69;73.66;52325.56;5113017;28;20208;-79
2024/03/12 03:16:20;;;;;;;5.73;1.90;;;;;;;-145.69;74.14;52349.31;5113744;28;20212;-78
2024/03/12 03:18:47;;;;;;;4.43;2.37;;;;;;;-145.69;74.50;52359.22;5113509;28;20202;-79
2024/03/12 03:21:14;;;;;;;3.73;2.07;;;;;;;-145.69;75.01;52373.09;5114830;27;20204;-79
2024/03/12 03:23:41;;;;;;;3.00;2.23;;;;;;;-145.69;74.68;52371.13;5142966;27;20224;-79
2024/03/12 03:26:08;;;;;;;3.93;2.07;;;;;;;-145.69;74.91;52337.44;5138488;27;20208;-79
2024/03/12 03:28:34;;;;;;;3.33;1.90;;;;;;;-145.69;74.41;52345.38;5133751;27;20287;-79
2024/03/12 03:31:01;;;;;;;5.40;2.40;;;;;;;-145.69;74.56;52355.28;5133264;27;20192;-79
2024/03/12 03:33:29;;;;;;;7.27;2.77;;;;;;;-145.69;74.46;52369.13;5133779;27;20232;-79
2024/03/12 03:35:55;;;;;;;3.63;1.93;;;;;;;-145.69;74.44;52349.31;5134074;27;20658;-79
2024/03/12 03:38:22;;;;;;;3.97;2.57;;;;;;;-145.69;74.34;52357.25;5133964;27;20210;-79
2024/03/12 03:40:48;;;;;;;2.50;1.90;;;;;;;-145.69;74.37;52394.88;5134085;27;20279;-79
2024/03/12 03:43:15;;;;;;;5.07;2.20;;;;;;;-145.69;73.55;52345.38;5133558;27;20221;-80
2024/03/12 03:45:42;;;;;;;6.43;2.10;;;;;;;-145.69;73.05;52341.41;5133670;27;20201;-79
2024/03/12 03:48:09;;;;;;;4.53;2.23;;;;;;;-145.69;73.55;52345.38;5133526;27;20200;-80
2024/03/12 03:50:37;;;;;;;4.83;2.30;;;;;;;-145.69;72.63;52357.25;5132923;27;20564;-79
2024/03/12 03:53:07;;;;;;;2.90;1.93;;;;;;;-145.69;73.40;52349.31;5133404;27;20192;-79
2024/03/12 03:55:34;;;;;;;3.60;2.10;;;;;;;-145.69;74.46;52345.38;5133664;27;20275;-79
2024/03/12 03:58:01;;;;;;;5.40;2.03;;;;;;;-145.69;74.50;52373.09;5132742;27;20201;-79
2024/03/12 04:00:32;;;;;;;6.97;2.17;;;;;;;-145.69;74.85;52373.09;5133735;27;20196;-79
2024/03/12 04:02:58;;;;;;;2.53;2.03;;;;;;;-145.69;74.98;52365.16;5132758;27;20226;-79
2024/03/12 04:05:32;;;;;;;4.83;2.33;;;;;;;-145.69;74.86;52361.22;5133817;27;20203;-80
2024/03/12 04:07:59;;;;;;;3.90;2.30;;;;;;;-145.69;74.39;52345.38;5133745;27;20205;-79
2024/03/12 04:10:30;;;;;;;6.27;2.70;;;;;;;-145.69;74.53;52345.38;5133100;28;20203;-79
2024/03/12 04:12:57;;;;;;;5.97;2.50;;;;;;;-145.69;74.80;52353.28;5133336;28;20185;-79
2024/03/12 04:15:28;;;;;;;4.90;2.70;;;;;;;-145.69;74.62;52357.25;5133647;27;20205;-79
2024/03/12 04:17:56;;;;;;;9.37;2.80;;;;;;;-145.69;74.31;52377.06;5133755;27;20256;-79
2024/03/12 04:20:23;;;;;;;4.07;2.60;;;;;;;-145.69;74.71;52351.31;5133509;27;20197;-78
2024/03/12 04:22:49;;;;;;;4.70;2.67;;;;;;;-145.69;74.46;52333.47;5134418;27;20230;-81
2024/03/12 04:25:17;;;;;;;6.70;2.67;;;;;;;-145.69;74.36;52365.16;5157692;27;20200;-79
2024/03/12 04:27:43;;;;;;;6.88;2.67;;;;;;;-145.69;74.49;52373.09;5157657;27;20519;-79
2024/03/12 04:30:12;;;;;;;8.20;2.60;;;;;;;-145.69;74.45;52367.16;5157734;27;20210;-80
2024/03/12 04:32:39;;;;;;;5.00;2.33;;;;;;;-145.69;73.51;52317.66;5157205;27;20192;-80
2024/03/12 04:35:08;;;;;;;5.60;2.63;;;;;;;-145.69;73.83;52349.31;5158048;27;20658;-81
2024/03/12 04:37:34;;;;;;;3.40;2.27;;;;;;;-145.69;73.98;52351.31;5137623;27;20532;-80
2024/03/12 04:40:06;;;;;;;7.43;2.57;;;;;;;-145.69;74.29;52329.53;5137117;27;20201;-79
2024/03/12 04:42:34;;;;;;;4.70;2.63;;;;;;;-145.69;74.35;52369.13;5137281;27;20277;-79
2024/03/12 04:45:01;;;;;;;6.83;2.37;;;;;;;-145.69;74.91;52359.22;5137389;27;20288;-81
2024/03/12 04:47:27;;;;;;;4.97;2.60;;;;;;;-145.69;74.62;52349.31;5136846;27;20209;-80
2024/03/12 04:49:54;;;;;;;5.50;2.23;;;;;;;-145.69;74.47;52331.50;5137103;27;20203;-80
2024/03/12 04:52:21;;;;;;;4.83;2.30;;;;;;;-145.69;74.77;52315.66;5136815;27;20208;-80
2024/03/12 04:54:47;;;;;;;4.87;2.20;;;;;;;-145.69;74.54;52367.16;5154601;27;20210;-80
2024/03/12 04:57:14;;;;;;;4.57;2.40;;;;;;;-145.69;74.78;52327.53;5157592;27;20199;-79
2024/03/12 04:59:42;;;;;;;7.97;2.50;;;;;;;-145.69;74.61;52341.41;5157724;27;20206;-79
2024/03/12 05:02:11;;;;;;;6.00;2.30;;;;;;;-145.69;74.77;52349.31;5156367;27;20192;-80
2024/03/12 05:04:38;;;;;;;4.73;2.00;;;;;;;-145.69;74.91;52355.28;5141440;27;20221;-80
2024/03/12 05:07:11;;;;;;;4.47;2.37;;;;;;;-145.69;74.96;52329.53;5135991;27;20200;-79
2024/03/12 05:09:38;;;;;;;8.40;2.40;;;;;;;-145.69;74.53;52349.31;5136262;27;20188;-80
2024/03/12 05:12:05;;;;;;;4.27;2.23;;;;;;;-145.69;74.19;52353.28;5136220;27;20197;-80
2024/03/12 05:14:31;;;;;;;2.60;2.00;;;;;;;-145.69;74.41;52363.19;5135728;27;20193;-80
2024/03/12 05:17:02;;;;;;;4.40;2.07;;;;;;;-145.69;73.87;52333.47;5136518;27;20221;-80
2024/03/12 05:19:29;;;;;;;5.33;2.30;;;;;;;-145.69;74.24;52361.22;5136322;27;20208;-80
2024/03/12 05:21:56;;;;;;;4.60;2.07;;;;;;;-145.69;74.67;52325.56;5136310;27;20208;-80
2024/03/12 05:24:24;;;;;;;3.27;2.10;;;;;;;-145.69;73.99;52335.47;5136008;27;20757;-80
2024/03/12 05:26:52;;;;;;;4.17;2.33;;;;;;;-145.69;74.81;52339.44;5136333;27;20207;-81
2024/03/12 05:29:19;;;;;;;3.97;2.00;;;;;;;-145.69;74.60;52323.59;5136272;27;20200;-80
2024/03/12 05:31:45;;;;;;;6.07;2.30;;;;;;;-145.69;74.74;52333.47;5136474;27;20781;-80
2024/03/12 05:34:16;;;;;;;5.57;2.30;;;;;;;-145.69;74.63;52341.41;5136106;27;20558;-79
2024/03/12 05:36:48;;;;;;;7.40;2.40;;;;;;;-145.69;75.03;52365.16;5135102;27;20204;-81
2024/03/12 05:39:18;;;;;;;3.97;2.13;;;;;;;-145.69;74.32;52347.34;5136441;27;20197;-80
2024/03/12 05:48:06;;;;;;;9.53;2.47;;;;;;;-145.69;74.58;52349.31;5136023;27;20188;-81
2024/03/12 05:50:10;;;;;;;4.90;2.27;;;;;;;-145.69;73.67;52355.28;5135767;27;20354;-81
2024/03/12 05:52:39;;;;;;;4.27;2.57;;;;;;;-145.69;73.13;52335.47;5135971;27;20196;-81
2024/03/12 05:55:09;;;;;;;4.03;1.97;;;;;;;-145.69;74.11;52345.38;5135871;27;20201;-82
2024/03/12 05:57:43;;;;;;;6.00;2.50;;;;;;;-145.69;74.61;52309.72;5135756;27;20200;-79
2024/03/12 06:00:11;;;;;;;5.17;2.40;;;;;;;-145.69;74.85;52321.59;5134075;27;20623;-79
2024/03/12 06:02:38;;;;;;;3.47;2.20;;;;;;;-145.69;74.97;52327.53;5133090;27;20228;-79
2024/03/12 06:05:05;;;;;;;4.07;2.27;;;;;;;-145.69;74.47;52345.38;5135771;27;20229;-81
2024/03/12 06:07:33;;;;;;;8.60;2.90;;;;;;;-145.69;74.54;52339.44;5135254;27;20213;-80
2024/03/12 06:10:00;;;;;;;5.73;2.57;;;;;;;-145.69;74.64;52349.31;5134977;27;20533;-81
2024/03/12 06:12:27;;;;;;;4.50;2.43;;;;;;;-145.69;74.28;52357.25;5143057;27;20221;-80
2024/03/12 06:14:55;;;;;;;4.50;2.30;;;;;;;-145.69;74.52;52341.41;5136130;27;20285;-80
2024/03/12 06:17:23;;;;;;;5.40;2.33;;;;;;;-145.69;74.65;52303.78;5135497;27;20238;-81
2024/03/12 06:19:50;;;;;;;3.73;2.20;;;;;;;-145.69;75.01;52303.78;5135329;27;20204;-82
2024/03/12 06:22:17;;;;;;;5.53;2.67;;;;;;;-145.69;74.95;52343.38;5135359;27;20676;-80
2024/03/12 06:24:47;;;;;;;5.10;2.20;;;;;;;-145.69;74.24;52337.44;5135506;27;20227;-80
2024/03/12 06:27:14;;;;;;;11.03;2.60;;;;;;;-145.69;74.13;52319.63;5135544;27;20203;-80
2024/03/12 06:29:40;;;;;;;4.07;2.10;;;;;;;-145.69;74.29;52321.59;5135171;27;20193;-81
2024/03/12 06:32:07;;;;;;;3.10;2.10;;;;;;;-145.69;75.10;52353.28;5135117;27;20200;-81
2024/03/12 06:34:33;;;;;;;5.23;2.43;;;;;;;-145.69;74.94;52357.25;5135225;27;20224;-81
2024/03/12 06:37:02;;;;;;;7.83;2.40;;;;;;;-145.69;75.10;52347.34;5134417;27;20201;-80
2024/03/12 06:39:32;;;;;;;3.07;2.40;;;;;;;-145.69;75.09;52317.66;5134543;27;20193;-79
2024/03/12 06:42:02;;;;;;;7.53;2.50;;;;;;;-145.69;75.09;52293.88;5134581;27;20659;-80
2024/03/12 06:44:33;;;;;;;5.83;2.40;;;;;;;-145.69;74.51;52315.66;5134726;27;20225;-81
2024/03/12 06:46:59;;;;;;;6.87;2.80;;;;;;;-145.69;74.69;52295.84;5134689;27;20200;-80
2024/03/12 06:49:26;;;;;;;4.70;2.80;;;;;;;-145.69;75.01;52349.31;5134423;27;20201;-80
2024/03/12 06:51:53;;;;;;;6.00;2.20;;;;;;;-145.69;74.54;52353.28;5134696;27;20239;-81
2024/03/12 06:54:21;;;;;;;4.57;2.50;;;;;;;-145.69;74.96;52274.06;5134881;27;20200;-80
2024/03/12 06:56:48;;;;;;;9.73;2.63;;;;;;;-145.69;74.59;52325.56;5134607;27;20200;-80
2024/03/12 06:59:16;;;;;;;3.53;2.43;;;;;;;-145.69;74.73;52365.16;5134286;27;20205;-81
2024/03/12 07:01:43;;;;;;;3.80;2.20;;;;;;;-145.69;74.48;52291.91;5134266;27;20203;-81
2024/03/12 07:04:10;;;;;;;2.97;2.10;;;;;;;-145.69;75.15;52317.66;5134296;27;20228;-80
2024/03/12 07:06:37;;;;;;;3.60;2.07;;;;;;;-145.69;75.42;52323.59;5134685;27;20231;-81
2024/03/12 07:09:09;;;;;;;5.80;2.27;;;;;;;-145.69;74.75;52309.72;5134515;27;20212;-80
2024/03/12 07:11:39;;;;;;;4.37;2.40;;;;;;;-145.69;74.83;52317.66;5133810;27;20204;-80
2024/03/12 07:14:12;;;;;;;2.23;1.80;;;;;;;-145.69;75.08;52347.34;5134354;27;20203;-79
2024/03/12 07:16:42;;;;;;;1.73;1.57;;;;;;;-145.69;71.77;52321.59;5133873;27;20556;-80
2024/03/12 07:19:10;;;;;;;3.90;1.70;;;;;;;-145.69;72.22;52309.72;5134785;27;20223;-79
2024/03/12 07:21:37;;;;;;;3.07;1.70;;;;;;;-145.69;73.60;52303.78;5133780;27;20197;-80
2024/03/12 07:24:06;;;;;;;5.37;2.30;;;;;;;-145.69;73.79;52313.69;5134057;27;20220;-80
2024/03/12 07:26:33;;;;;;;3.90;1.70;;;;;;;-145.69;70.73;52305.75;5134168;27;20193;-81
2024/03/12 07:29:06;;;;;;;4.47;1.93;;;;;;;-145.69;71.98;52319.63;5133956;27;20235;-81
2024/03/12 07:31:33;;;;;;;2.97;2.00;;;;;;;-145.69;70.30;52319.63;5133605;27;20536;-81
2024/03/12 07:34:01;;;;;;;4.33;1.93;;;;;;;-145.69;71.69;52327.53;5133547;27;20197;-80
2024/03/12 07:36:29;;;;;;;3.97;1.80;;;;;;;-145.69;70.50;52311.69;5134005;27;20727;-80
2024/03/12 07:38:56;;;;;;;4.17;2.00;;;;;;;-145.69;69.29;52329.53;5133838;27;20291;-80
2024/03/12 07:41:23;;;;;;;3.93;1.83;;;;;;;-145.69;68.60;52280.00;5133732;27;20189;-80
2024/03/12 07:43:49;;;;;;;2.83;1.90;;;;;;;-145.69;68.72;52299.81;5134311;27;20225;-80
2024/03/12 07:46:17;;;;;;;3.00;1.80;;;;;;;-145.69;68.87;52317.66;5133588;27;20201;-80
2024/03/12 07:48:44;;;;;;;2.03;1.40;;;;;;;-145.69;69.42;52339.44;5132943;27;20283;-80
2024/03/12 07:51:12;;;;;;;1.37;1.27;;;;;;;-145.69;67.07;52317.66;5133444;27;20228;-80
2024/03/12 07:53:39;;;;;;;2.40;1.53;;;;;;;-145.69;67.47;52305.75;5133721;27;20208;-80
2024/03/12 07:56:06;;;;;;;2.27;1.30;;;;;;;-145.69;68.60;52309.72;5133433;27;20224;-80
2024/03/12 07:58:33;;;;;;;2.63;1.50;;;;;;;-145.69;67.32;52325.56;5132948;27;20204;-80
2024/03/12 08:01:01;;;;;;;1.00;1.00;;;;;;;-145.69;67.55;52313.69;5133430;27;20196;-80
2024/03/12 08:03:27;;;;;;;3.03;1.40;;;;;;;-145.69;68.94;52301.81;5133010;27;20301;-80
2024/03/12 08:05:59;;;;;;;1.70;1.50;;;;;;;-145.69;66.25;52341.41;5133644;28;20204;-80
2024/03/12 08:08:33;;;;;;;2.57;1.50;;;;;;;-145.69;66.47;52301.81;5132187;28;20283;-80
2024/03/12 08:11:04;;;;;;;1.53;1.40;;;;;;;-145.69;66.64;52317.66;5133109;27;20193;-79
2024/03/12 08:13:31;;;;;;;2.60;1.30;;;;;;;-145.69;66.63;52321.59;5133478;28;20235;-80
2024/03/12 08:16:02;;;;;;;1.40;1.30;;;;;;;-145.69;67.32;52293.88;5133460;28;20199;-80
2024/03/12 08:18:31;;;;;;;2.43;1.83;;;;;;;-145.69;65.82;52359.22;5133152;27;20197;-79
2024/03/12 08:20:57;;;;;;;1.60;1.27;;;;;;;-145.69;64.72;52321.59;5133105;27;20196;-80
2024/03/12 08:23:27;;;;;;;1.23;1.13;;;;;;;-145.69;65.91;52331.50;5133185;27;20224;-79
2024/03/12 08:25:56;;;;;;;1.37;1.07;;;;;;;-145.69;65.84;52305.75;5133211;27;20655;-79
2024/03/12 08:28:23;;;;;;;1.73;1.10;;;;;;;-145.69;65.66;52319.63;5133239;27;20254;-80
2024/03/12 08:30:53;;;;;;;1.03;0.93;;;;;;;-145.69;65.78;52331.50;5133104;28;20208;-80
2024/03/12 08:33:24;;;;;;;1.43;1.20;;;;;;;-145.69;67.05;52311.69;5133143;27;20223;-80
2024/03/12 08:35:50;;;;;;;1.83;1.20;;;;;;;-145.69;65.15;52325.56;5133222;27;20200;-80
2024/03/12 08:38:19;;;;;;;1.40;1.20;;;;;;;-145.69;65.51;52301.81;5133102;28;20197;-80
2024/03/12 08:40:45;;;;;;;2.20;1.20;;;;;;;-145.69;65.30;52321.59;5132891;27;20554;-80
2024/03/12 08:43:13;;;;;;;2.47;1.20;;;;;;;-145.69;66.15;52305.75;5133082;28;20205;-78
2024/03/12 08:45:40;;;;;;;1.40;1.30;;;;;;;-145.69;66.94;52353.28;5132933;27;20193;-79
2024/03/12 08:48:07;;;;;;;3.33;1.77;;;;;;;-145.69;64.96;52301.81;5132949;27;20200;-81
2024/03/12 08:50:34;;;;;;;2.70;1.60;;;;;;;-145.69;65.85;52297.84;5133104;27;20274;-79
2024/03/12 08:53:00;;;;;;;2.43;1.43;;;;;;;-145.69;64.28;52313.69;5133291;28;20201;-79
2024/03/12 08:55:28;;;;;;;3.00;2.00;;;;;;;-145.69;63.56;52321.59;5133201;28;20250;-79
2024/03/12 08:57:55;;;;;;;4.17;2.50;;;;;;;-145.69;63.56;52280.00;5133224;28;20284;-78
2024/03/12 09:00:24;;;;;;;4.73;2.47;;;;;;;-145.69;63.69;52303.78;5132780;27;20193;-79
2024/03/12 09:02:51;;;;;;;6.70;3.30;;;;;;;-145.69;64.57;52329.53;5132089;27;20193;-80
2024/03/12 09:05:22;;;;;;;7.50;3.03;;;;;;;-145.69;63.91;52282.00;5133161;27;20225;-79
2024/03/12 09:07:49;;;;;;;6.53;2.97;;;;;;;-145.69;63.06;52274.06;5132805;27;20220;-78
2024/03/12 09:10:16;;;;;;;6.23;3.63;;;;;;;-145.69;64.12;52293.88;5132973;27;20197;-78
2024/03/12 09:12:44;;;;;;;6.97;3.20;;;;;;;-145.69;63.44;52297.84;5136536;27;20201;-78
2024/03/12 09:15:16;;;;;;;5.37;3.17;;;;;;;-145.69;64.34;52329.53;5136737;27;20204;-77
2024/03/12 09:17:45;;;;;;;8.40;3.87;;;;;;;-145.69;65.68;52278.03;5136260;27;20430;-78
2024/03/12 09:20:15;;;;;;;5.77;3.50;;;;;;;-145.69;64.75;52305.75;5136357;27;20205;-79
2024/03/12 09:22:50;;;;;;;8.97;4.43;;;;;;;-145.69;62.54;52305.75;5138669;27;20231;-78
2024/03/12 09:25:19;;;;;;;6.83;3.10;;;;;;;-145.69;62.17;52287.94;5135841;27;20231;-79
2024/03/12 09:27:48;;;;;;;6.57;3.50;;;;;;;-145.69;62.78;52274.06;5136202;27;20296;-78
2024/03/12 09:30:17;;;;;;;6.63;3.63;;;;;;;-145.69;61.54;52285.97;5136223;27;20224;-79
2024/03/12 09:32:45;;;;;;;7.47;3.70;;;;;;;-145.69;62.67;52268.13;5136133;27;20560;-79
2024/03/12 09:35:18;;;;;;;7.20;3.30;;;;;;;-145.69;61.14;52270.13;5134978;27;20197;-79
2024/03/12 09:37:45;;;;;;;11.47;4.33;;;;;;;-145.69;60.36;52276.06;5135380;27;20189;-79
2024/03/12 09:40:14;;;;;;;8.77;4.37;;;;;;;-145.69;59.99;52262.19;5136240;27;20205;-80
2024/03/12 09:42:45;;;;;;;9.87;4.40;;;;;;;-145.69;60.59;52276.06;5135923;27;20218;-80
2024/03/12 09:45:14;;;;;;;11.93;4.90;;;;;;;-145.69;59.37;52305.75;5136069;27;20220;-80
2024/03/12 09:47:44;;;;;;;10.60;4.90;;;;;;;-145.69;59.15;52285.97;5135742;27;20204;-78
2024/03/12 09:50:16;;;;;;;11.23;5.03;;;;;;;-145.69;59.24;52252.28;5135713;27;20229;-79
2024/03/12 09:52:44;;;;;;;8.87;4.10;;;;;;;-145.69;58.33;52278.03;5124640;27;20300;-81
2024/03/12 09:55:11;;;;;;;12.17;4.90;;;;;;;-145.69;57.65;52266.16;5115193;27;20210;-79
2024/03/12 09:57:41;;;;;;;9.00;5.00;;;;;;;-145.69;57.71;52274.06;5122140;27;20201;-80
2024/03/12 10:00:11;;;;;;;10.30;4.90;;;;;;;-145.69;57.83;52266.16;5120426;27;20568;-78
2024/03/12 10:02:38;;;;;;;9.03;4.20;;;;;;;-145.69;57.74;52289.91;5115132;28;20200;-78
2024/03/12 10:05:09;;;;;;;13.07;5.27;;;;;;;-145.69;58.31;52278.03;5125136;27;20248;-79
2024/03/12 10:07:37;;;;;;;8.63;4.80;;;;;;;-145.69;58.73;52295.84;5135043;27;20659;-78
2024/03/12 10:10:09;;;;;;;10.50;4.53;;;;;;;-145.69;57.86;52258.22;5130159;27;20198;-78
2024/03/12 10:12:37;;;;;;;8.13;4.17;;;;;;;-145.69;58.03;52268.13;5144127;27;20196;-79
2024/03/12 10:15:11;;;;;;;10.93;4.33;;;;;;;-145.69;57.61;52319.63;5156104;27;20246;-78
2024/03/12 10:17:42;;;;;;;9.20;4.30;;;;;;;-145.69;57.42;52282.00;5156030;27;20203;-80
2024/03/12 10:20:15;;;;;;;10.10;4.20;;;;;;;-145.69;57.62;52270.13;5155853;27;20192;-79
2024/03/12 10:23:03;;;;;;;9.90;3.97;;;;;;;-145.69;57.31;52256.25;5145272;27;20275;-78
2024/03/12 10:25:30;;;;;;;8.07;3.70;;;;;;;-145.69;57.50;52280.00;5135076;27;20694;-79
2024/03/12 10:28:07;;;;;;;11.70;4.67;;;;;;;-145.69;56.89;52234.47;5134874;27;20201;-78
2024/03/12 10:30:37;;;;;;;8.67;4.13;;;;;;;-145.69;57.03;52297.84;5135269;27;20189;-78
2024/03/12 10:33:16;;;;;;;9.07;4.10;;;;;;;-145.69;55.93;52301.81;5135088;27;20279;-78
2024/03/12 10:35:44;;;;;;;10.33;4.20;;;;;;;-145.69;56.35;52254.28;5135041;27;20780;-77
2024/03/12 10:38:16;;;;;;;6.17;3.13;;;;;;;-145.69;56.23;52240.41;5134724;27;20292;-79
2024/03/12 10:40:45;;;;;;;6.90;3.40;;;;;;;-145.69;55.96;52242.38;5134717;27;20674;-79
2024/03/12 10:43:22;;;;;;;8.87;3.47;;;;;;;-145.69;56.44;52262.19;5134507;27;20279;-79
2024/03/12 10:45:51;;;;;;;7.10;3.57;;;;;;;-145.69;56.32;52276.06;5134083;27;20224;-79
2024/03/12 10:48:19;;;;;;;6.53;3.27;;;;;;;-145.69;55.57;52262.19;5134445;27;20229;-79
2024/03/12 10:50:51;;;;;;;8.03;3.70;;;;;;;-145.69;55.67;52250.31;5134247;27;20237;-79
2024/03/12 10:53:21;;;;;;;5.70;3.07;;;;;;;-145.69;55.44;52274.06;5134480;27;20203;-79
2024/03/12 10:55:48;;;;;;;6.43;3.43;;;;;;;-145.69;55.38;52266.16;5134596;27;20200;-79
2024/03/12 10:58:18;;;;;;;8.50;3.40;;;;;;;-145.69;55.57;52280.00;5134579;27;20211;-79
2024/03/12 11:00:45;;;;;;;6.40;3.50;;;;;;;-145.69;56.66;52264.16;5133960;27;20564;-79
2024/03/12 11:03:17;;;;;;;5.93;2.97;;;;;;;-145.69;56.50;52258.22;5134363;27;20285;-79
2024/03/12 11:05:45;;;;;;;7.07;2.93;;;;;;;-145.69;56.78;52260.22;5134308;27;20256;-80
2024/03/12 11:08:14;;;;;;;6.17;3.10;;;;;;;-145.69;55.63;52254.28;5134453;27;20205;-80
2024/03/12 11:10:47;;;;;;;8.20;3.13;;;;;;;-145.69;54.55;52266.16;5134133;27;20559;-80
2024/03/12 11:13:20;;;;;;;5.43;2.80;;;;;;;-145.69;53.51;52246.34;5134256;27;20197;-81
2024/03/12 11:15:46;;;;;;;5.53;2.90;;;;;;;-145.69;53.58;52276.06;5134090;27;20283;-82
2024/03/12 11:18:14;;;;;;;8.13;3.50;;;;;;;-145.69;53.29;52268.13;5133994;27;20283;-79
2024/03/12 11:20:41;;;;;;;5.27;2.63;;;;;;;-145.69;53.58;52234.47;5134271;27;20203;-80
2024/03/12 11:23:10;;;;;;;4.97;2.70;;;;;;;-145.69;54.81;52272.09;5133963;27;20607;-80
2024/03/12 11:25:45;;;;;;;3.80;2.47;;;;;;;-145.69;54.68;52274.06;5133954;27;20263;-80
2024/03/12 11:28:22;;;;;;;3.87;2.40;;;;;;;-145.69;54.79;52278.03;5134094;27;20201;-80